Time,TemperatureF,DewpointF,PressureIn,WindDirection,WindDirectionDegrees,WindSpeedMPH,WindSpeedGustMPH,Humidity,HourlyPrecipIn,Conditions,Clouds,dailyrainin,SoftwareType,DateUTC
2013-09-30 00:01:00,71.6,34.9,29.90,ESE,117,2.0,2.0,26,0.00,,,0.00,Wunderground v.1.15,2013-09-30 07:01:00,
2013-09-30 00:06:00,72.1,35.3,29.90,ESE,113,1.0,2.0,26,0.00,,,0.00,Wunderground v.1.15,2013-09-30 07:06:00,
2013-09-30 00:11:00,72.2,35.4,29.90,ESE,115,2.0,3.0,26,0.00,,,0.00,Wunderground v.1.15,2013-09-30 07:11:00,
2013-09-30 00:16:00,72.5,34.7,29.90,East,99,2.0,5.0,25,0.00,,,0.00,Wunderground v.1.15,2013-09-30 07:16:00,
2013-09-30 00:21:00,72.6,34.7,29.89,ESE,110,0.0,2.0,25,0.00,,,0.00,Wunderground v.1.15,2013-09-30 07:21:00,
2013-09-30 00:26:00,72.4,34.6,29.89,ESE,113,1.0,2.0,25,0.00,,,0.00,Wunderground v.1.15,2013-09-30 07:26:00,
2013-09-30 00:31:00,72.0,35.2,29.89,ESE,110,1.0,2.0,26,0.00,,,0.00,Wunderground v.1.15,2013-09-30 07:31:00,
2013-09-30 00:36:00,72.0,35.2,29.89,SE,130,0.0,3.0,26,0.00,,,0.00,Wunderground v.1.15,2013-09-30 07:36:00,
2013-09-30 00:41:00,72.0,34.2,29.89,ESE,110,1.0,3.0,25,0.00,,,0.00,Wunderground v.1.15,2013-09-30 07:41:00,
2013-09-30 00:46:00,72.0,35.2,29.89,ESE,107,0.0,3.0,26,0.00,,,0.00,Wunderground v.1.15,2013-09-30 07:46:00,
2013-09-30 00:51:00,71.8,35.0,29.89,ESE,111,2.0,3.0,26,0.00,,,0.00,Wunderground v.1.15,2013-09-30 07:51:00,
2013-09-30 00:56:00,71.7,35.0,29.89,ESE,109,2.0,3.0,26,0.00,,,0.00,Wunderground v.1.15,2013-09-30 07:56:00,
2013-09-30 01:01:00,71.6,34.9,29.89,ESE,110,2.0,2.0,26,0.00,,,0.00,Wunderground v.1.15,2013-09-30 08:01:00,
2013-09-30 01:06:00,71.4,34.7,29.89,ESE,108,1.0,2.0,26,0.00,,,0.00,Wunderground v.1.15,2013-09-30 08:06:00,
2013-09-30 01:11:00,71.3,34.6,29.89,ESE,105,2.0,2.0,26,0.00,,,0.00,Wunderground v.1.15,2013-09-30 08:11:00,
2013-09-30 01:16:00,71.3,34.6,29.89,ESE,121,2.0,3.0,26,0.00,,,0.00,Wunderground v.1.15,2013-09-30 08:16:00,
2013-09-30 01:21:00,71.3,34.6,29.89,ESE,110,0.0,2.0,26,0.00,,,0.00,Wunderground v.1.15,2013-09-30 08:21:00,
2013-09-30 01:26:00,71.2,34.5,29.89,ESE,118,1.0,2.0,26,0.00,,,0.00,Wunderground v.1.15,2013-09-30 08:26:00,
2013-09-30 01:31:00,71.1,34.5,29.89,ESE,110,0.0,3.0,26,0.00,,,0.00,Wunderground v.1.15,2013-09-30 08:31:00,
2013-09-30 01:36:00,71.1,34.5,29.89,ESE,114,0.0,4.0,26,0.00,,,0.00,Wunderground v.1.15,2013-09-30 08:36:00,
2013-09-30 01:41:00,71.1,34.5,29.89,East,84,0.0,1.0,26,0.00,,,0.00,Wunderground v.1.15,2013-09-30 08:41:00,
2013-09-30 01:46:00,70.6,35.0,29.89,ESE,104,0.0,1.0,27,0.00,,,0.00,Wunderground v.1.15,2013-09-30 08:46:00,
2013-09-30 01:51:00,69.8,35.2,29.89,ESE,105,0.0,1.0,28,0.00,,,0.00,Wunderground v.1.15,2013-09-30 08:51:00,
2013-09-30 01:56:00,69.7,36.0,29.89,ESE,109,0.0,1.0,29,0.00,,,0.00,Wunderground v.1.15,2013-09-30 08:56:00,
2013-09-30 02:01:00,68.9,37.0,29.89,West,270,1.0,2.0,31,0.00,,,0.00,Wunderground v.1.15,2013-09-30 09:01:00,
2013-09-30 02:06:00,67.6,44.3,29.89,West,270,0.0,2.0,43,0.00,,,0.00,Wunderground v.1.15,2013-09-30 09:06:00,
2013-09-30 02:11:00,66.5,51.7,29.89,West,280,0.0,1.0,59,0.00,,,0.00,Wunderground v.1.15,2013-09-30 09:11:00,
2013-09-30 02:16:00,65.6,53.5,29.89,West,280,0.0,1.0,65,0.00,,,0.00,Wunderground v.1.15,2013-09-30 09:16:00,
2013-09-30 02:21:00,64.8,51.9,29.89,West,280,0.0,0.0,63,0.00,,,0.00,Wunderground v.1.15,2013-09-30 09:21:00,
2013-09-30 02:26:00,64.3,48.7,29.89,NW,325,0.0,1.0,57,0.00,,,0.00,Wunderground v.1.15,2013-09-30 09:26:00,
2013-09-30 02:30:00,64.5,47.0,29.88,NNW,338,0.0,0.0,53,0.00,,,0.00,Wunderground v.1.15,2013-09-30 09:30:00,
2013-09-30 02:35:00,64.3,47.3,29.88,NE,43,0.0,1.0,54,0.00,,,0.00,Wunderground v.1.15,2013-09-30 09:35:00,
2013-09-30 02:40:00,64.0,46.5,29.88,NE,46,0.0,0.0,53,0.00,,,0.00,Wunderground v.1.15,2013-09-30 09:40:00,
2013-09-30 02:45:00,64.0,45.0,29.88,ESE,103,0.0,1.0,50,0.00,,,0.00,Wunderground v.1.15,2013-09-30 09:45:00,
2013-09-30 02:50:00,64.3,44.2,29.88,ESE,103,0.0,0.0,48,0.00,,,0.00,Wunderground v.1.15,2013-09-30 09:50:00,
2013-09-30 02:55:00,64.2,45.2,29.88,ESE,103,0.0,0.0,50,0.00,,,0.00,Wunderground v.1.15,2013-09-30 09:55:00,
2013-09-30 03:00:00,62.6,44.7,29.88,NNE,13,0.0,0.0,52,0.00,,,0.00,Wunderground v.1.15,2013-09-30 10:00:00,
2013-09-30 03:05:00,61.1,41.8,29.88,NNE,13,0.0,1.0,49,0.00,,,0.00,Wunderground v.1.15,2013-09-30 10:05:00,
2013-09-30 03:10:00,60.6,41.8,29.88,NNE,13,0.0,0.0,50,0.00,,,0.00,Wunderground v.1.15,2013-09-30 10:10:00,
2013-09-30 03:15:00,61.3,42.0,29.88,NNE,13,0.0,1.0,49,0.00,,,0.00,Wunderground v.1.15,2013-09-30 10:15:00,
2013-09-30 03:20:00,62.2,42.3,29.87,NNE,13,0.0,0.0,48,0.00,,,0.00,Wunderground v.1.15,2013-09-30 10:20:00,
2013-09-30 03:25:00,61.9,44.1,29.87,NNE,13,0.0,0.0,52,0.00,,,0.00,Wunderground v.1.15,2013-09-30 10:25:00,
2013-09-30 03:30:00,61.0,44.2,29.87,NNE,13,0.0,0.0,54,0.00,,,0.00,Wunderground v.1.15,2013-09-30 10:30:00,
2013-09-30 03:35:00,60.2,43.5,29.87,NNE,13,0.0,0.0,54,0.00,,,0.00,Wunderground v.1.15,2013-09-30 10:35:00,
2013-09-30 03:40:00,59.4,42.3,29.87,NNE,13,0.0,0.0,53,0.00,,,0.00,Wunderground v.1.15,2013-09-30 10:40:00,
2013-09-30 03:45:00,59.0,42.4,29.87,NNE,13,0.0,0.0,54,0.00,,,0.00,Wunderground v.1.15,2013-09-30 10:45:00,
2013-09-30 03:50:00,58.7,41.6,29.87,NNE,13,0.0,0.0,53,0.00,,,0.00,Wunderground v.1.15,2013-09-30 10:50:00,
2013-09-30 03:55:00,57.8,41.7,29.87,NNE,12,0.0,1.0,55,0.00,,,0.00,Wunderground v.1.15,2013-09-30 10:55:00,
2013-09-30 04:00:00,56.3,40.8,29.87,NNE,20,0.0,1.0,56,0.00,,,0.00,Wunderground v.1.15,2013-09-30 11:00:00,
2013-09-30 04:05:00,55.9,40.9,29.87,East,98,0.0,1.0,57,0.00,,,0.00,Wunderground v.1.15,2013-09-30 11:05:00,
2013-09-30 04:10:00,56.7,40.7,29.87,East,98,0.0,0.0,55,0.00,,,0.00,Wunderground v.1.15,2013-09-30 11:10:00,
2013-09-30 04:15:00,57.4,40.9,29.87,East,96,0.0,0.0,54,0.00,,,0.00,Wunderground v.1.15,2013-09-30 11:15:00,
2013-09-30 04:20:00,57.4,40.4,29.87,NNE,30,0.0,1.0,53,0.00,,,0.00,Wunderground v.1.15,2013-09-30 11:20:00,
2013-09-30 04:25:00,57.5,40.5,29.87,NNE,20,0.0,1.0,53,0.00,,,0.00,Wunderground v.1.15,2013-09-30 11:25:00,
2013-09-30 04:30:00,57.6,39.6,29.87,ENE,75,0.0,1.0,51,0.00,,,0.00,Wunderground v.1.15,2013-09-30 11:30:00,
2013-09-30 04:35:00,58.4,40.3,29.87,ENE,73,0.0,1.0,51,0.00,,,0.00,Wunderground v.1.15,2013-09-30 11:35:00,
2013-09-30 04:40:00,58.8,39.1,29.88,ENE,75,0.0,0.0,48,0.00,,,0.00,Wunderground v.1.15,2013-09-30 11:40:00,
2013-09-30 04:45:00,59.1,38.9,29.88,ENE,75,0.0,0.0,47,0.00,,,0.00,Wunderground v.1.15,2013-09-30 11:45:00,
2013-09-30 04:50:00,58.8,39.7,29.88,NE,34,0.0,0.0,49,0.00,,,0.00,Wunderground v.1.15,2013-09-30 11:50:00,
2013-09-30 04:55:00,58.7,39.6,29.88,NNE,24,0.0,1.0,49,0.00,,,0.00,Wunderground v.1.15,2013-09-30 11:55:00,
2013-09-30 05:00:00,58.3,38.7,29.88,NNE,25,0.0,0.0,48,0.00,,,0.00,Wunderground v.1.15,2013-09-30 12:00:00,
2013-09-30 05:05:00,58.7,38.5,29.88,ENE,59,0.0,1.0,47,0.00,,,0.00,Wunderground v.1.15,2013-09-30 12:05:00,
2013-09-30 05:10:00,59.5,39.2,29.88,ENE,59,0.0,1.0,47,0.00,,,0.00,Wunderground v.1.15,2013-09-30 12:10:00,
2013-09-30 05:15:00,59.9,37.9,29.88,ESE,112,0.0,1.0,44,0.00,,,0.00,Wunderground v.1.15,2013-09-30 12:15:00,
2013-09-30 05:20:00,60.2,39.3,29.88,ESE,112,0.0,0.0,46,0.00,,,0.00,Wunderground v.1.15,2013-09-30 12:20:00,
2013-09-30 05:25:00,60.2,38.2,29.88,ESE,112,0.0,0.0,44,0.00,,,0.00,Wunderground v.1.15,2013-09-30 12:25:00,
2013-09-30 05:30:00,59.8,40.1,29.88,ESE,111,0.0,0.0,48,0.00,,,0.00,Wunderground v.1.15,2013-09-30 12:30:00,
2013-09-30 05:35:00,57.8,40.3,29.88,ESE,112,0.0,0.0,52,0.00,,,0.00,Wunderground v.1.15,2013-09-30 12:35:00,
2013-09-30 05:40:00,56.8,38.9,29.88,ESE,112,0.0,0.0,51,0.00,,,0.00,Wunderground v.1.15,2013-09-30 12:40:00,
2013-09-30 05:45:00,56.4,39.0,29.88,ESE,112,0.0,0.0,52,0.00,,,0.00,Wunderground v.1.15,2013-09-30 12:45:00,
2013-09-30 05:50:00,56.6,39.7,29.88,ESE,110,0.0,0.0,53,0.00,,,0.00,Wunderground v.1.15,2013-09-30 12:50:00,
2013-09-30 05:55:00,56.9,40.4,29.88,ESE,108,0.0,0.0,54,0.00,,,0.00,Wunderground v.1.15,2013-09-30 12:55:00,
2013-09-30 06:00:00,57.7,38.1,29.88,East,91,1.0,1.0,48,0.00,,,0.00,Wunderground v.1.15,2013-09-30 13:00:00,
2013-09-30 06:05:00,58.7,37.4,29.88,ESE,114,0.0,1.0,45,0.00,,,0.00,Wunderground v.1.15,2013-09-30 13:05:00,
2013-09-30 06:10:00,59.7,37.2,29.89,ESE,113,0.0,0.0,43,0.00,,,0.00,Wunderground v.1.15,2013-09-30 13:10:00,
2013-09-30 06:15:00,59.5,39.2,29.89,ESE,113,0.0,0.0,47,0.00,,,0.00,Wunderground v.1.15,2013-09-30 13:15:00,
2013-09-30 06:20:00,58.8,41.2,29.89,ESE,113,0.0,0.0,52,0.00,,,0.00,Wunderground v.1.15,2013-09-30 13:20:00,
2013-09-30 06:25:00,58.2,40.6,29.89,ESE,113,0.0,0.0,52,0.00,,,0.00,Wunderground v.1.15,2013-09-30 13:25:00,
2013-09-30 06:30:00,57.3,40.3,29.89,ESE,113,0.0,0.0,53,0.00,,,0.00,Wunderground v.1.15,2013-09-30 13:30:00,
2013-09-30 06:35:00,56.9,38.4,29.89,ESE,112,0.0,0.0,50,0.00,,,0.00,Wunderground v.1.15,2013-09-30 13:35:00,
2013-09-30 06:40:00,57.6,38.0,29.89,ESE,112,0.0,0.0,48,0.00,,,0.00,Wunderground v.1.15,2013-09-30 13:40:00,
2013-09-30 06:45:00,58.0,38.9,29.89,ESE,112,0.0,0.0,49,0.00,,,0.00,Wunderground v.1.15,2013-09-30 13:45:00,
2013-09-30 06:50:00,57.9,37.8,29.89,ESE,112,0.0,0.0,47,0.00,,,0.00,Wunderground v.1.15,2013-09-30 13:50:00,
2013-09-30 06:55:00,58.2,37.5,29.89,ESE,112,0.0,1.0,46,0.00,,,0.00,Wunderground v.1.15,2013-09-30 13:55:00,
2013-09-30 07:00:00,58.8,37.5,29.89,East,84,0.0,1.0,45,0.00,,,0.00,Wunderground v.1.15,2013-09-30 14:00:00,
2013-09-30 07:05:00,60.4,38.4,29.89,East,88,0.0,1.0,44,0.00,,,0.00,Wunderground v.1.15,2013-09-30 14:05:00,
2013-09-30 07:10:00,61.9,39.1,29.89,East,87,0.0,0.0,43,0.00,,,0.00,Wunderground v.1.15,2013-09-30 14:10:00,
2013-09-30 07:15:00,62.6,39.2,29.89,East,87,0.0,0.0,42,0.00,,,0.00,Wunderground v.1.15,2013-09-30 14:15:00,
2013-09-30 07:20:00,62.3,39.5,29.89,East,87,0.0,0.0,43,0.00,,,0.00,Wunderground v.1.15,2013-09-30 14:20:00,
2013-09-30 07:25:00,61.9,38.5,29.90,East,88,0.0,0.0,42,0.00,,,0.00,Wunderground v.1.15,2013-09-30 14:25:00,
2013-09-30 07:30:00,62.1,39.9,29.90,NE,54,0.0,0.0,44,0.00,,,0.00,Wunderground v.1.15,2013-09-30 14:30:00,
2013-09-30 07:35:00,61.7,42.9,29.90,NNE,30,0.0,0.0,50,0.00,,,0.00,Wunderground v.1.15,2013-09-30 14:35:00,
2013-09-30 07:40:00,61.3,46.8,29.90,NNE,30,0.0,0.0,59,0.00,,,0.00,Wunderground v.1.15,2013-09-30 14:40:00,
2013-09-30 07:45:00,60.3,45.0,29.90,NW,326,0.0,1.0,57,0.00,,,0.00,Wunderground v.1.15,2013-09-30 14:45:00,
2013-09-30 07:50:00,59.8,45.4,29.91,NW,326,0.0,0.0,59,0.00,,,0.00,Wunderground v.1.15,2013-09-30 14:50:00,
2013-09-30 07:55:00,59.8,45.4,29.91,NW,312,1.0,1.0,59,0.00,,,0.00,Wunderground v.1.15,2013-09-30 14:55:00,
2013-09-30 08:00:00,60.1,46.2,29.91,NW,312,1.0,1.0,60,0.00,,,0.00,Wunderground v.1.15,2013-09-30 15:00:00,
2013-09-30 08:05:00,60.7,46.3,29.91,North,351,0.0,1.0,59,0.00,,,0.00,Wunderground v.1.15,2013-09-30 15:05:00,
2013-09-30 08:10:00,61.6,44.3,29.91,North,352,0.0,0.0,53,0.00,,,0.00,Wunderground v.1.15,2013-09-30 15:10:00,
2013-09-30 08:15:00,63.3,41.6,29.91,ENE,70,0.0,2.0,45,0.00,,,0.00,Wunderground v.1.15,2013-09-30 15:15:00,
2013-09-30 08:20:00,65.1,40.8,29.91,North,10,1.0,1.0,41,0.00,,,0.00,Wunderground v.1.15,2013-09-30 15:20:00,
2013-09-30 08:25:00,66.2,41.8,29.91,North,354,0.0,3.0,41,0.00,,,0.00,Wunderground v.1.15,2013-09-30 15:25:00,
2013-09-30 08:30:00,67.1,42.0,29.91,ENE,73,2.0,2.0,40,0.00,,,0.00,Wunderground v.1.15,2013-09-30 15:30:00,
2013-09-30 08:35:00,67.9,40.7,29.91,NW,318,0.0,5.0,37,0.00,,,0.00,Wunderground v.1.15,2013-09-30 15:35:00,
2013-09-30 08:40:00,69.1,41.0,29.91,NNW,346,3.0,4.0,36,0.00,,,0.00,Wunderground v.1.15,2013-09-30 15:40:00,
2013-09-30 08:45:00,69.5,41.4,29.91,North,9,1.0,4.0,36,0.00,,,0.00,Wunderground v.1.15,2013-09-30 15:45:00,
2013-09-30 08:50:00,70.5,40.0,29.91,NNW,340,0.0,1.0,33,0.00,,,0.00,Wunderground v.1.15,2013-09-30 15:50:00,
2013-09-30 08:55:00,72.0,40.5,29.91,East,92,0.0,1.0,32,0.00,,,0.00,Wunderground v.1.15,2013-09-30 15:55:00,
2013-09-30 09:00:00,72.7,41.1,29.91,NE,43,0.0,3.0,32,0.00,,,0.00,Wunderground v.1.15,2013-09-30 16:00:00,
2013-09-30 09:05:00,73.1,39.8,29.91,NW,323,2.0,3.0,30,0.00,,,0.00,Wunderground v.1.15,2013-09-30 16:05:00,
2013-09-30 09:10:00,73.0,40.6,29.92,North,353,3.0,4.0,31,0.00,,,0.00,Wunderground v.1.15,2013-09-30 16:10:00,
2013-09-30 09:15:00,73.4,40.1,29.92,North,353,3.0,4.0,30,0.00,,,0.00,Wunderground v.1.15,2013-09-30 16:15:00,
2013-09-30 09:20:00,73.9,41.3,29.91,North,354,0.0,2.0,31,0.00,,,0.00,Wunderground v.1.15,2013-09-30 16:20:00,
2013-09-30 09:25:00,74.1,40.7,29.91,NNW,341,2.0,4.0,30,0.00,,,0.00,Wunderground v.1.15,2013-09-30 16:25:00,
2013-09-30 09:30:00,74.7,42.0,29.92,North,356,0.0,1.0,31,0.00,,,0.00,Wunderground v.1.15,2013-09-30 16:30:00,
2013-09-30 09:35:00,75.4,41.8,29.92,NNW,330,0.0,3.0,30,0.00,,,0.00,Wunderground v.1.15,2013-09-30 16:35:00,
2013-09-30 09:40:00,76.0,41.4,29.92,NNW,336,2.0,3.0,29,0.00,,,0.00,Wunderground v.1.15,2013-09-30 16:40:00,
2013-09-30 09:45:00,76.4,41.8,29.92,North,354,2.0,3.0,29,0.00,,,0.00,Wunderground v.1.15,2013-09-30 16:45:00,
2013-09-30 09:50:00,76.9,40.4,29.92,North,350,3.0,3.0,27,0.00,,,0.00,Wunderground v.1.15,2013-09-30 16:50:00,
2013-09-30 09:55:00,77.4,40.8,29.92,NNW,338,3.0,3.0,27,0.00,,,0.00,Wunderground v.1.15,2013-09-30 16:55:00,
2013-09-30 10:00:00,77.7,40.1,29.92,NW,316,0.0,2.0,26,0.00,,,0.00,Wunderground v.1.15,2013-09-30 17:00:00,
2013-09-30 10:05:00,78.6,40.8,29.92,North,355,0.0,2.0,26,0.00,,,0.00,Wunderground v.1.15,2013-09-30 17:05:00,
2013-09-30 10:10:00,79.3,40.4,29.92,NNW,333,1.0,2.0,25,0.00,,,0.00,Wunderground v.1.15,2013-09-30 17:10:00,
2013-09-30 10:15:00,79.5,40.6,29.91,East,79,1.0,3.0,25,0.00,,,0.00,Wunderground v.1.15,2013-09-30 17:15:00,
2013-09-30 10:20:00,80.1,40.0,29.91,North,353,0.0,1.0,24,0.00,,,0.00,Wunderground v.1.15,2013-09-30 17:20:00,
2013-09-30 10:25:00,80.5,41.4,29.91,NW,326,0.0,2.0,25,0.00,,,0.00,Wunderground v.1.15,2013-09-30 17:25:00,
2013-09-30 10:30:00,81.3,42.1,29.91,NW,315,1.0,1.0,25,0.00,,,0.00,Wunderground v.1.15,2013-09-30 17:30:00,
2013-09-30 10:35:00,81.8,40.4,29.91,East,87,0.0,2.0,23,0.00,,,0.00,Wunderground v.1.15,2013-09-30 17:35:00,
2013-09-30 10:40:00,82.4,42.0,29.91,North,359,0.0,1.0,24,0.00,,,0.00,Wunderground v.1.15,2013-09-30 17:40:00,
2013-09-30 10:45:00,83.5,44.0,29.91,ENE,64,0.0,1.0,25,0.00,,,0.00,Wunderground v.1.15,2013-09-30 17:45:00,
2013-09-30 10:50:00,84.6,43.8,29.90,NNW,331,0.0,1.0,24,0.00,,,0.00,Wunderground v.1.15,2013-09-30 17:50:00,
2013-09-30 10:55:00,84.1,39.9,29.90,SW,235,2.0,4.0,21,0.00,,,0.00,Wunderground v.1.15,2013-09-30 17:55:00,
2013-09-30 11:00:00,83.7,39.6,29.90,WSW,248,1.0,2.0,21,0.00,,,0.00,Wunderground v.1.15,2013-09-30 18:00:00,
2013-09-30 11:05:00,84.1,41.1,29.90,West,281,1.0,3.0,22,0.00,,,0.00,Wunderground v.1.15,2013-09-30 18:05:00,
2013-09-30 11:10:00,84.5,41.5,29.90,West,278,0.0,1.0,22,0.00,,,0.00,Wunderground v.1.15,2013-09-30 18:10:00,
2013-09-30 11:15:00,84.9,41.8,29.90,WNW,291,0.0,2.0,22,0.00,,,0.00,Wunderground v.1.15,2013-09-30 18:15:00,
2013-09-30 11:20:00,85.1,43.1,29.90,West,279,0.0,1.0,23,0.00,,,0.00,Wunderground v.1.15,2013-09-30 18:20:00,
2013-09-30 11:25:00,85.4,44.5,29.89,NW,322,3.0,3.0,24,0.00,,,0.00,Wunderground v.1.15,2013-09-30 18:25:00,
2013-09-30 11:30:00,85.5,45.7,29.89,WNW,303,2.0,3.0,25,0.00,,,0.00,Wunderground v.1.15,2013-09-30 18:30:00,
2013-09-30 11:35:00,85.6,44.7,29.89,NW,311,1.0,3.0,24,0.00,,,0.00,Wunderground v.1.15,2013-09-30 18:35:00,
2013-09-30 11:40:00,86.0,43.9,29.89,NW,308,2.0,2.0,23,0.00,,,0.00,Wunderground v.1.15,2013-09-30 18:40:00,
2013-09-30 11:45:00,86.4,45.3,29.89,WNW,290,3.0,3.0,24,0.00,,,0.00,Wunderground v.1.15,2013-09-30 18:45:00,
2013-09-30 11:50:00,86.5,46.5,29.89,West,276,1.0,2.0,25,0.00,,,0.00,Wunderground v.1.15,2013-09-30 18:50:00,
2013-09-30 11:55:00,86.7,42.1,29.88,NW,315,2.0,4.0,21,0.00,,,0.00,Wunderground v.1.15,2013-09-30 18:55:00,
2013-09-30 12:00:00,86.9,45.8,29.88,WNW,299,2.0,3.0,24,0.00,,,0.00,Wunderground v.1.15,2013-09-30 19:00:00,
2013-09-30 12:05:00,87.0,44.7,29.88,West,271,1.0,6.0,23,0.00,,,0.00,Wunderground v.1.15,2013-09-30 19:05:00,
2013-09-30 12:10:00,87.7,44.1,29.88,WNW,290,2.0,2.0,22,0.00,,,0.00,Wunderground v.1.15,2013-09-30 19:10:00,
2013-09-30 12:15:00,88.1,43.2,29.87,West,269,1.0,4.0,21,0.00,,,0.00,Wunderground v.1.15,2013-09-30 19:15:00,
2013-09-30 12:20:00,88.7,38.3,29.87,WSW,243,0.0,2.0,17,0.00,,,0.00,Wunderground v.1.15,2013-09-30 19:20:00,
2013-09-30 12:25:00,89.7,42.0,29.87,West,264,3.0,5.0,19,0.00,,,0.00,Wunderground v.1.15,2013-09-30 19:25:00,
2013-09-30 12:30:00,89.7,40.6,29.86,WNW,290,2.0,2.0,18,0.00,,,0.00,Wunderground v.1.15,2013-09-30 19:30:00,
2013-09-30 12:35:00,89.8,37.6,29.86,West,271,2.0,5.0,16,0.00,,,0.00,Wunderground v.1.15,2013-09-30 19:35:00,
2013-09-30 12:40:00,90.1,36.2,29.86,WNW,303,3.0,3.0,15,0.00,,,0.00,Wunderground v.1.15,2013-09-30 19:40:00,
2013-09-30 12:45:00,90.3,39.6,29.85,NW,313,3.0,4.0,17,0.00,,,0.00,Wunderground v.1.15,2013-09-30 19:45:00,
2013-09-30 12:50:00,90.7,38.3,29.85,WNW,284,3.0,5.0,16,0.00,,,0.00,Wunderground v.1.15,2013-09-30 19:50:00,
2013-09-30 12:55:00,91.0,45.6,29.85,West,264,5.0,9.0,21,0.00,,,0.00,Wunderground v.1.15,2013-09-30 19:55:00,
2013-09-30 13:00:00,91.0,35.2,29.85,West,270,4.0,5.0,14,0.00,,,0.00,Wunderground v.1.15,2013-09-30 20:00:00,
2013-09-30 13:05:00,91.0,38.6,29.85,West,277,1.0,10.0,16,0.00,,,0.00,Wunderground v.1.15,2013-09-30 20:05:00,
2013-09-30 13:10:00,91.6,35.7,29.84,SSE,147,2.0,4.0,14,0.00,,,0.00,Wunderground v.1.15,2013-09-30 20:10:00,
2013-09-30 13:15:00,92.5,38.1,29.84,WNW,288,3.0,7.0,15,0.00,,,0.00,Wunderground v.1.15,2013-09-30 20:15:00,
2013-09-30 13:20:00,92.9,34.8,29.83,SW,226,2.0,2.0,13,0.00,,,0.00,Wunderground v.1.15,2013-09-30 20:20:00,
2013-09-30 13:25:00,93.1,33.0,29.83,SW,222,2.0,9.0,12,0.00,,,0.00,Wunderground v.1.15,2013-09-30 20:25:00,
2013-09-30 13:30:00,92.9,34.8,29.83,West,273,5.0,5.0,13,0.00,,,0.00,Wunderground v.1.15,2013-09-30 20:30:00,
2013-09-30 13:35:00,92.5,36.4,29.83,West,271,4.0,8.0,14,0.00,,,0.00,Wunderground v.1.15,2013-09-30 20:35:00,
2013-09-30 13:40:00,92.9,36.7,29.82,WSW,240,4.0,7.0,14,0.00,,,0.00,Wunderground v.1.15,2013-09-30 20:40:00,
2013-09-30 13:45:00,93.1,36.8,29.82,West,273,7.0,10.0,14,0.00,,,0.00,Wunderground v.1.15,2013-09-30 20:45:00,
2013-09-30 13:50:00,92.5,34.5,29.82,SW,224,4.0,5.0,13,0.00,,,0.00,Wunderground v.1.15,2013-09-30 20:50:00,
2013-09-30 13:55:00,92.9,34.8,29.82,West,273,5.0,8.0,13,0.00,,,0.00,Wunderground v.1.15,2013-09-30 20:55:00,
2013-09-30 14:00:00,92.9,32.8,29.82,WSW,246,6.0,6.0,12,0.00,,,0.00,Wunderground v.1.15,2013-09-30 21:00:00,
2013-09-30 14:05:00,93.1,33.0,29.82,WSW,256,3.0,11.0,12,0.00,,,0.00,Wunderground v.1.15,2013-09-30 21:05:00,
2013-09-30 14:10:00,93.5,35.3,29.82,WSW,257,4.0,4.0,13,0.00,,,0.00,Wunderground v.1.15,2013-09-30 21:10:00,
2013-09-30 14:15:00,93.6,37.2,29.81,West,274,7.0,9.0,14,0.00,,,0.00,Wunderground v.1.15,2013-09-30 21:15:00,
2013-09-30 14:20:00,93.2,35.0,29.81,West,267,3.0,5.0,13,0.00,,,0.00,Wunderground v.1.15,2013-09-30 21:20:00,
2013-09-30 14:25:00,93.3,37.0,29.81,SSW,205,4.0,7.0,14,0.00,,,0.00,Wunderground v.1.15,2013-09-30 21:25:00,
2013-09-30 14:30:00,93.4,35.2,29.81,SE,125,1.0,4.0,13,0.00,,,0.00,Wunderground v.1.15,2013-09-30 21:30:00,
2013-09-30 14:35:00,94.0,31.5,29.81,West,276,0.0,8.0,11,0.00,,,0.00,Wunderground v.1.15,2013-09-30 21:35:00,
2013-09-30 14:40:00,94.4,31.8,29.81,West,263,3.0,3.0,11,0.00,,,0.00,Wunderground v.1.15,2013-09-30 21:40:00,
2013-09-30 14:45:00,94.9,36.4,29.80,WSW,252,2.0,4.0,13,0.00,,,0.00,Wunderground v.1.15,2013-09-30 21:45:00,
2013-09-30 14:50:00,95.3,36.7,29.80,West,267,4.0,4.0,13,0.00,,,0.00,Wunderground v.1.15,2013-09-30 21:50:00,
2013-09-30 14:55:00,94.8,34.3,29.79,West,278,3.0,8.0,12,0.00,,,0.00,Wunderground v.1.15,2013-09-30 21:55:00,
2013-09-30 15:00:00,94.9,32.2,29.79,WSW,243,7.0,7.0,11,0.00,,,0.00,Wunderground v.1.15,2013-09-30 22:00:00,
2013-09-30 15:05:00,95.3,30.1,29.79,West,267,1.0,8.0,10,0.00,,,0.00,Wunderground v.1.15,2013-09-30 22:05:00,
2013-09-30 15:10:00,95.2,34.6,29.79,West,264,3.0,3.0,12,0.00,,,0.00,Wunderground v.1.15,2013-09-30 22:10:00,
2013-09-30 15:15:00,94.8,36.3,29.79,WNW,293,3.0,7.0,13,0.00,,,0.00,Wunderground v.1.15,2013-09-30 22:15:00,
2013-09-30 15:20:00,95.0,43.4,29.79,West,259,5.0,5.0,17,0.00,,,0.00,Wunderground v.1.15,2013-09-30 22:20:00,
2013-09-30 15:25:00,94.7,39.9,29.78,NNW,342,2.0,6.0,15,0.00,,,0.00,Wunderground v.1.15,2013-09-30 22:25:00,
2013-09-30 15:30:00,94.7,38.1,29.78,West,273,2.0,3.0,14,0.00,,,0.00,Wunderground v.1.15,2013-09-30 22:30:00,
2013-09-30 15:35:00,95.1,36.5,29.78,WSW,245,1.0,5.0,13,0.00,,,0.00,Wunderground v.1.15,2013-09-30 22:35:00,
2013-09-30 15:40:00,95.8,32.9,29.78,WSW,245,0.0,2.0,11,0.00,,,0.00,Wunderground v.1.15,2013-09-30 22:40:00,
2013-09-30 15:45:00,96.1,39.2,29.78,West,274,2.0,4.0,14,0.00,,,0.00,Wunderground v.1.15,2013-09-30 22:45:00,
2013-09-30 15:50:00,95.7,38.9,29.77,West,263,1.0,2.0,14,0.00,,,0.00,Wunderground v.1.15,2013-09-30 22:50:00,
2013-09-30 15:55:00,96.1,35.3,29.77,SW,226,1.0,7.0,12,0.00,,,0.00,Wunderground v.1.15,2013-09-30 22:55:00,
2013-09-30 16:00:00,96.0,35.2,29.77,West,263,1.0,7.0,12,0.00,,,0.00,Wunderground v.1.15,2013-09-30 23:00:00,
2013-09-30 16:04:00,96.5,37.6,29.77,WSW,252,5.0,5.0,13,0.00,,,0.00,Wunderground v.1.15,2013-09-30 23:04:00,
2013-09-30 16:09:00,96.0,37.2,29.77,West,264,3.0,6.0,13,0.00,,,0.00,Wunderground v.1.15,2013-09-30 23:09:00,
2013-09-30 16:14:00,95.5,45.3,29.76,WSW,258,3.0,4.0,18,0.00,,,0.00,Wunderground v.1.15,2013-09-30 23:14:00,
2013-09-30 16:19:00,95.0,40.1,29.76,West,268,3.0,6.0,15,0.00,,,0.00,Wunderground v.1.15,2013-09-30 23:19:00,
2013-09-30 16:24:00,95.5,42.2,29.76,WSW,255,3.0,6.0,16,0.00,,,0.00,Wunderground v.1.15,2013-09-30 23:24:00,
2013-09-30 16:29:00,95.1,34.5,29.76,West,266,3.0,6.0,12,0.00,,,0.00,Wunderground v.1.15,2013-09-30 23:29:00,
2013-09-30 16:34:00,95.1,34.5,29.76,SW,222,2.0,7.0,12,0.00,,,0.00,Wunderground v.1.15,2013-09-30 23:34:00,
2013-09-30 16:39:00,95.7,32.8,29.76,SW,222,0.0,7.0,11,0.00,,,0.00,Wunderground v.1.15,2013-09-30 23:39:00,
2013-09-30 16:44:00,95.9,48.4,29.76,West,278,3.0,4.0,20,0.00,,,0.00,Wunderground v.1.15,2013-09-30 23:44:00,
2013-09-30 16:49:00,95.3,38.6,29.76,West,260,3.0,5.0,14,0.00,,,0.00,Wunderground v.1.15,2013-09-30 23:49:00,
2013-09-30 16:54:00,95.0,38.3,29.75,West,276,5.0,6.0,14,0.00,,,0.00,Wunderground v.1.15,2013-09-30 23:54:00,
2013-09-30 16:59:00,94.9,38.3,29.75,SW,236,3.0,8.0,14,0.00,,,0.00,Wunderground v.1.15,2013-09-30 23:59:00,
2013-09-30 17:04:00,95.3,38.6,29.75,WSW,258,4.0,8.0,14,0.00,,,0.00,Wunderground v.1.15,2013-10-01 00:04:00,
2013-09-30 17:09:00,95.4,38.6,29.75,WSW,252,3.0,8.0,14,0.00,,,0.00,Wunderground v.1.15,2013-10-01 00:09:00,
2013-09-30 17:14:00,95.0,38.3,29.75,West,272,2.0,6.0,14,0.00,,,0.00,Wunderground v.1.15,2013-10-01 00:14:00,
2013-09-30 17:19:00,95.0,36.4,29.75,WSW,243,3.0,6.0,13,0.00,,,0.00,Wunderground v.1.15,2013-10-01 00:19:00,
2013-09-30 17:24:00,95.2,38.5,29.75,WSW,248,1.0,6.0,14,0.00,,,0.00,Wunderground v.1.15,2013-10-01 00:24:00,
2013-09-30 17:29:00,95.2,36.6,29.75,SSW,212,1.0,6.0,13,0.00,,,0.00,Wunderground v.1.15,2013-10-01 00:29:00,
2013-09-30 17:34:00,95.2,36.6,29.75,West,260,1.0,3.0,13,0.00,,,0.00,Wunderground v.1.15,2013-10-01 00:34:00,
2013-09-30 17:39:00,94.9,38.3,29.74,SW,226,3.0,7.0,14,0.00,,,0.00,Wunderground v.1.15,2013-10-01 00:39:00,
2013-09-30 17:44:00,94.6,38.0,29.75,SW,233,1.0,4.0,14,0.00,,,0.00,Wunderground v.1.15,2013-10-01 00:44:00,
2013-09-30 17:49:00,94.3,39.5,29.75,WSW,240,1.0,4.0,15,0.00,,,0.00,Wunderground v.1.15,2013-10-01 00:49:00,
2013-09-30 17:54:00,94.5,37.9,29.74,SSW,194,0.0,4.0,14,0.00,,,0.00,Wunderground v.1.15,2013-10-01 00:54:00,
2013-09-30 17:59:00,94.9,38.3,29.74,WSW,245,0.0,4.0,14,0.00,,,0.00,Wunderground v.1.15,2013-10-01 00:59:00,
2013-09-30 18:04:00,94.8,38.2,29.74,SSE,150,0.0,1.0,14,0.00,,,0.00,Wunderground v.1.15,2013-10-01 01:04:00,
2013-09-30 18:09:00,94.2,37.7,29.74,WSW,253,1.0,1.0,14,0.00,,,0.00,Wunderground v.1.15,2013-10-01 01:09:00,
2013-09-30 18:14:00,93.2,36.9,29.74,SE,134,0.0,2.0,14,0.00,,,0.00,Wunderground v.1.15,2013-10-01 01:14:00,
2013-09-30 18:19:00,92.2,37.9,29.74,WSW,237,0.0,2.0,15,0.00,,,0.00,Wunderground v.1.15,2013-10-01 01:19:00,
2013-09-30 18:24:00,90.9,36.8,29.74,SW,233,0.0,1.0,15,0.00,,,0.00,Wunderground v.1.15,2013-10-01 01:24:00,
2013-09-30 18:29:00,89.6,35.8,29.74,SW,231,0.0,1.0,15,0.00,,,0.00,Wunderground v.1.15,2013-10-01 01:29:00,
2013-09-30 18:34:00,88.4,38.0,29.74,SW,233,0.0,0.0,17,0.00,,,0.00,Wunderground v.1.15,2013-10-01 01:34:00,
2013-09-30 18:39:00,87.3,37.1,29.74,SSE,159,0.0,0.0,17,0.00,,,0.00,Wunderground v.1.15,2013-10-01 01:39:00,
2013-09-30 18:44:00,86.4,36.4,29.74,SSE,159,0.0,0.0,17,0.00,,,0.00,Wunderground v.1.15,2013-10-01 01:44:00,
2013-09-30 18:49:00,85.5,37.1,29.74,SSE,164,0.0,0.0,18,0.00,,,0.00,Wunderground v.1.15,2013-10-01 01:49:00,
2013-09-30 18:54:00,84.9,36.7,29.75,SSE,165,0.0,0.0,18,0.00,,,0.00,Wunderground v.1.15,2013-10-01 01:54:00,
2013-09-30 18:59:00,84.2,36.1,29.74,SSE,165,0.0,0.0,18,0.00,,,0.00,Wunderground v.1.15,2013-10-01 01:59:00,
2013-09-30 19:04:00,83.4,36.8,29.75,SSE,165,0.0,0.0,19,0.00,,,0.00,Wunderground v.1.15,2013-10-01 02:04:00,
2013-09-30 19:09:00,82.8,36.3,29.75,SSE,167,0.0,0.0,19,0.00,,,0.00,Wunderground v.1.15,2013-10-01 02:09:00,
2013-09-30 19:14:00,82.2,37.1,29.75,SSE,166,0.0,0.0,20,0.00,,,0.00,Wunderground v.1.15,2013-10-01 02:14:00,
2013-09-30 19:19:00,81.8,36.8,29.75,SSE,166,0.0,0.0,20,0.00,,,0.00,Wunderground v.1.15,2013-10-01 02:19:00,
2013-09-30 19:24:00,81.4,36.5,29.75,SSE,166,0.0,0.0,20,0.00,,,0.00,Wunderground v.1.15,2013-10-01 02:24:00,
2013-09-30 19:29:00,80.9,36.1,29.75,SSE,167,0.0,0.0,20,0.00,,,0.00,Wunderground v.1.15,2013-10-01 02:29:00,
2013-09-30 19:34:00,80.5,35.7,29.75,SSE,167,0.0,0.0,20,0.00,,,0.00,Wunderground v.1.15,2013-10-01 02:34:00,
2013-09-30 19:39:00,80.4,35.6,29.75,SSE,166,0.0,0.0,20,0.00,,,0.00,Wunderground v.1.15,2013-10-01 02:39:00,
2013-09-30 19:44:00,80.2,34.2,29.75,SSE,166,0.0,0.0,19,0.00,,,0.00,Wunderground v.1.15,2013-10-01 02:44:00,
2013-09-30 19:49:00,80.4,34.3,29.75,SSE,163,0.0,0.0,19,0.00,,,0.00,Wunderground v.1.15,2013-10-01 02:49:00,
2013-09-30 19:54:00,81.5,33.9,29.75,ESE,109,0.0,0.0,18,0.00,,,0.00,Wunderground v.1.15,2013-10-01 02:54:00,
2013-09-30 19:59:00,82.1,32.9,29.76,ESE,103,1.0,1.0,17,0.00,,,0.00,Wunderground v.1.15,2013-10-01 02:59:00,
2013-09-30 20:04:00,82.4,33.2,29.76,East,98,0.0,1.0,17,0.00,,,0.00,Wunderground v.1.15,2013-10-01 03:04:00,
2013-09-30 20:09:00,82.5,33.3,29.76,East,101,0.0,2.0,17,0.00,,,0.00,Wunderground v.1.15,2013-10-01 03:09:00,
2013-09-30 20:14:00,82.8,34.9,29.76,East,101,0.0,1.0,18,0.00,,,0.00,Wunderground v.1.15,2013-10-01 03:14:00,
2013-09-30 20:19:00,82.7,34.9,29.76,East,100,0.0,1.0,18,0.00,,,0.00,Wunderground v.1.15,2013-10-01 03:19:00,
2013-09-30 20:24:00,82.3,35.9,29.76,ESE,102,0.0,1.0,19,0.00,,,0.00,Wunderground v.1.15,2013-10-01 03:24:00,
2013-09-30 20:29:00,82.3,35.9,29.77,ESE,103,0.0,1.0,19,0.00,,,0.00,Wunderground v.1.15,2013-10-01 03:29:00,
2013-09-30 20:34:00,82.8,36.3,29.77,ESE,108,0.0,1.0,19,0.00,,,0.00,Wunderground v.1.15,2013-10-01 03:34:00,
2013-09-30 20:39:00,83.0,36.5,29.77,East,99,0.0,1.0,19,0.00,,,0.00,Wunderground v.1.15,2013-10-01 03:39:00,
2013-09-30 20:44:00,82.9,36.4,29.77,ESE,108,0.0,1.0,19,0.00,,,0.00,Wunderground v.1.15,2013-10-01 03:44:00,
2013-09-30 20:49:00,83.1,36.6,29.77,ESE,105,0.0,1.0,19,0.00,,,0.00,Wunderground v.1.15,2013-10-01 03:49:00,
2013-09-30 20:54:00,82.8,36.3,29.77,East,101,0.0,0.0,19,0.00,,,0.00,Wunderground v.1.15,2013-10-01 03:54:00,
2013-09-30 20:59:00,82.0,38.2,29.77,East,101,0.0,0.0,21,0.00,,,0.00,Wunderground v.1.15,2013-10-01 03:59:00,
2013-09-30 21:01:00,81.5,46.2,29.77,NNE,26,0.0,1.0,29,0.00,,,0.00,Wunderground v.1.15,2013-10-01 04:01:00,
2013-09-30 21:06:00,79.0,44.0,29.78,NNE,26,0.0,1.0,29,0.00,,,0.00,Wunderground v.1.15,2013-10-01 04:06:00,
2013-09-30 21:11:00,77.2,44.2,29.78,NNE,26,0.0,0.0,31,0.00,,,0.00,Wunderground v.1.15,2013-10-01 04:11:00,
2013-09-30 21:16:00,75.1,44.8,29.78,NNE,26,0.0,1.0,34,0.00,,,0.00,Wunderground v.1.15,2013-10-01 04:16:00,
2013-09-30 21:21:00,73.6,45.7,29.78,NNE,26,1.0,1.0,37,0.00,,,0.00,Wunderground v.1.15,2013-10-01 04:21:00,
2013-09-30 21:26:00,72.6,48.8,29.78,NW,314,1.0,1.0,43,0.00,,,0.00,Wunderground v.1.15,2013-10-01 04:26:00,
2013-09-30 21:31:00,71.9,49.4,29.78,WNW,300,0.0,0.0,45,0.00,,,0.00,Wunderground v.1.15,2013-10-01 04:31:00,
2013-09-30 21:36:00,71.5,46.6,29.78,WNW,300,0.0,0.0,41,0.00,,,0.00,Wunderground v.1.15,2013-10-01 04:36:00,
2013-09-30 21:41:00,71.6,46.6,29.78,WNW,300,0.0,0.0,41,0.00,,,0.00,Wunderground v.1.15,2013-10-01 04:41:00,
2013-09-30 21:46:00,71.5,47.8,29.78,NW,325,0.0,0.0,43,0.00,,,0.00,Wunderground v.1.15,2013-10-01 04:46:00,
2013-09-30 21:51:00,71.5,46.6,29.79,NNW,327,0.0,0.0,41,0.00,,,0.00,Wunderground v.1.15,2013-10-01 04:51:00,
2013-09-30 21:56:00,71.6,47.9,29.79,North,5,3.0,4.0,43,0.00,,,0.00,Wunderground v.1.15,2013-10-01 04:56:00,
2013-09-30 22:01:00,71.5,47.8,29.79,North,1,2.0,2.0,43,0.00,,,0.00,Wunderground v.1.15,2013-10-01 05:01:00,
2013-09-30 22:06:00,71.7,44.0,29.79,NW,326,1.0,2.0,37,0.00,,,0.00,Wunderground v.1.15,2013-10-01 05:06:00,
2013-09-30 22:11:00,72.3,43.8,29.79,North,351,0.0,1.0,36,0.00,,,0.00,Wunderground v.1.15,2013-10-01 05:11:00,
2013-09-30 22:16:00,72.8,44.3,29.79,NNW,339,0.0,1.0,36,0.00,,,0.00,Wunderground v.1.15,2013-10-01 05:16:00,
2013-09-30 22:21:00,72.7,44.2,29.79,NNW,338,0.0,1.0,36,0.00,,,0.00,Wunderground v.1.15,2013-10-01 05:21:00,
2013-09-30 22:26:00,72.4,44.6,29.79,WNW,291,0.0,1.0,37,0.00,,,0.00,Wunderground v.1.15,2013-10-01 05:26:00,
2013-09-30 22:31:00,71.9,44.9,29.79,WNW,291,0.0,0.0,38,0.00,,,0.00,Wunderground v.1.15,2013-10-01 05:31:00,
2013-09-30 22:36:00,71.5,45.2,29.79,WNW,291,0.0,0.0,39,0.00,,,0.00,Wunderground v.1.15,2013-10-01 05:36:00,
2013-09-30 22:41:00,71.2,45.0,29.79,West,259,0.0,0.0,39,0.00,,,0.00,Wunderground v.1.15,2013-10-01 05:41:00,
2013-09-30 22:46:00,71.1,44.9,29.79,WSW,248,0.0,1.0,39,0.00,,,0.00,Wunderground v.1.15,2013-10-01 05:46:00,
2013-09-30 22:51:00,71.3,44.4,29.79,WSW,248,0.0,0.0,38,0.00,,,0.00,Wunderground v.1.15,2013-10-01 05:51:00,
2013-09-30 22:56:00,71.5,44.5,29.79,WSW,248,0.0,0.0,38,0.00,,,0.00,Wunderground v.1.15,2013-10-01 05:56:00,
2013-09-30 23:00:00,72.0,44.3,29.79,ESE,113,0.0,0.0,37,0.00,,,0.00,Wunderground v.1.15,2013-10-01 06:00:00,
2013-09-30 23:05:00,71.9,44.2,29.79,ESE,114,0.0,0.0,37,0.00,,,0.00,Wunderground v.1.15,2013-10-01 06:05:00,
2013-09-30 23:11:00,71.6,43.9,29.79,ESE,115,0.0,0.0,37,0.00,,,0.00,Wunderground v.1.15,2013-10-01 06:11:00,
2013-09-30 23:16:00,71.2,43.6,29.79,ESE,115,0.0,0.0,37,0.00,,,0.00,Wunderground v.1.15,2013-10-01 06:16:00,
2013-09-30 23:21:00,70.8,43.9,29.79,SE,126,0.0,0.0,38,0.00,,,0.00,Wunderground v.1.15,2013-10-01 06:21:00,
2013-09-30 23:26:00,70.6,43.7,29.79,ESE,120,0.0,0.0,38,0.00,,,0.00,Wunderground v.1.15,2013-10-01 06:26:00,
2013-09-30 23:31:00,70.4,43.6,29.79,ESE,120,0.0,1.0,38,0.00,,,0.00,Wunderground v.1.15,2013-10-01 06:31:00,
2013-09-30 23:36:00,70.4,42.9,29.79,ESE,112,1.0,2.0,37,0.00,,,0.00,Wunderground v.1.15,2013-10-01 06:36:00,
2013-09-30 23:41:00,70.9,42.6,29.79,ESE,113,1.0,2.0,36,0.00,,,0.00,Wunderground v.1.15,2013-10-01 06:41:00,
2013-09-30 23:46:00,71.6,41.7,29.79,ESE,112,0.0,2.0,34,0.00,,,0.00,Wunderground v.1.15,2013-10-01 06:46:00,
2013-09-30 23:51:00,72.3,41.6,29.79,ESE,108,0.0,0.0,33,0.00,,,0.00,Wunderground v.1.15,2013-10-01 06:51:00,
2013-09-30 23:56:00,71.8,41.1,29.79,ESE,122,0.0,1.0,33,0.00,,,0.00,Wunderground v.1.15,2013-10-01 06:56:00,